createdAt,value
2019-03-17T00:00:12.684Z,0.00
2019-03-17T00:01:12.728Z,0.00
2019-03-17T00:02:12.680Z,0.00
2019-03-17T00:03:12.661Z,0.00
2019-03-17T00:04:12.672Z,0.00
2019-03-17T00:05:12.650Z,0.00
2019-03-17T00:06:12.627Z,0.00
2019-03-17T00:07:12.677Z,0.00
2019-03-17T00:08:12.607Z,0.00
2019-03-17T00:09:12.656Z,0.00
2019-03-17T00:10:12.591Z,0.00
2019-03-17T00:11:12.621Z,0.00
2019-03-17T00:12:12.567Z,0.00
2019-03-17T00:13:12.628Z,0.00
2019-03-17T00:14:12.541Z,0.00
2019-03-17T00:15:12.566Z,0.00
2019-03-17T00:16:12.528Z,0.00
2019-03-17T00:17:12.537Z,0.00
2019-03-17T00:18:12.557Z,0.00
2019-03-17T00:19:12.591Z,0.00
2019-03-17T00:20:12.483Z,0.00
2019-03-17T00:21:12.531Z,0.00
2019-03-17T00:22:12.600Z,0.00
2019-03-17T00:23:12.471Z,0.00
2019-03-17T00:24:12.451Z,0.00
2019-03-17T00:25:12.489Z,0.00
2019-03-17T00:26:12.445Z,0.00
2019-03-17T00:27:12.417Z,0.00
2019-03-17T00:28:12.441Z,0.00
2019-03-17T00:29:12.387Z,0.00
2019-03-17T00:30:12.389Z,0.00
2019-03-17T00:31:23.123Z,0.00
2019-03-17T00:32:13.362Z,0.00
2019-03-17T00:33:12.351Z,0.00
2019-03-17T00:34:12.413Z,0.00
2019-03-17T00:35:12.326Z,0.00
2019-03-17T00:36:12.377Z,0.00
2019-03-17T00:37:12.335Z,0.00
2019-03-17T00:38:12.321Z,0.00
2019-03-17T00:39:12.300Z,0.00
2019-03-17T00:40:12.283Z,0.00
2019-03-17T00:41:12.324Z,0.00
2019-03-17T00:42:12.268Z,0.00
2019-03-17T00:43:12.265Z,0.00
2019-03-17T00:44:12.239Z,0.00
2019-03-17T00:45:12.223Z,0.00
2019-03-17T00:46:12.210Z,0.00
2019-03-17T00:47:12.233Z,0.00
2019-03-17T00:48:12.188Z,0.00
2019-03-17T00:49:12.204Z,0.00
2019-03-17T00:50:12.171Z,0.00
2019-03-17T00:51:12.194Z,0.00
2019-03-17T00:52:12.142Z,0.00
2019-03-17T00:53:12.145Z,0.00
2019-03-17T00:54:12.124Z,0.00
2019-03-17T00:55:12.136Z,0.00
2019-03-17T00:56:12.136Z,0.00
2019-03-17T00:57:12.161Z,0.00
2019-03-17T00:58:12.158Z,0.00
2019-03-17T00:59:12.088Z,0.00
2019-03-17T01:00:12.075Z,0.00
2019-03-17T01:01:12.155Z,0.00
2019-03-17T01:02:12.060Z,0.00
2019-03-17T01:03:12.155Z,0.00
2019-03-17T01:04:12.040Z,0.00
2019-03-17T01:05:12.014Z,0.00
2019-03-17T01:06:12.046Z,0.00
2019-03-17T01:07:12.046Z,0.00
2019-03-17T01:08:12.049Z,0.00
2019-03-17T01:09:12.032Z,0.00
2019-03-17T01:10:11.954Z,0.00
2019-03-17T01:11:11.949Z,0.00
2019-03-17T01:12:11.933Z,0.00
2019-03-17T01:13:11.988Z,0.00
2019-03-17T01:14:11.916Z,0.00
2019-03-17T01:15:11.915Z,0.00
2019-03-17T01:16:11.897Z,0.00
2019-03-17T01:17:11.879Z,0.00
2019-03-17T01:18:11.917Z,0.00
2019-03-17T01:19:11.905Z,0.00
2019-03-17T01:20:11.878Z,0.00
2019-03-17T01:21:11.924Z,0.00
2019-03-17T01:22:11.861Z,0.00
2019-03-17T01:23:11.821Z,0.00
2019-03-17T01:24:11.837Z,0.00
2019-03-17T01:25:11.823Z,0.00
2019-03-17T01:26:11.790Z,0.00
2019-03-17T01:27:11.790Z,0.00
2019-03-17T01:28:11.822Z,0.00
2019-03-17T01:29:11.764Z,0.00
2019-03-17T01:30:11.764Z,0.00
2019-03-17T01:31:11.843Z,0.00
2019-03-17T01:32:11.745Z,0.00
2019-03-17T01:33:11.744Z,0.00
2019-03-17T01:34:11.737Z,0.00
2019-03-17T01:35:11.747Z,0.00
2019-03-17T01:36:11.706Z,0.00
2019-03-17T01:37:11.698Z,0.00
2019-03-17T01:38:11.693Z,0.00
2019-03-17T01:39:11.667Z,0.00
2019-03-17T01:40:11.683Z,0.00
2019-03-17T01:41:11.644Z,0.00
2019-03-17T01:42:11.636Z,0.00
2019-03-17T01:43:11.706Z,0.00
2019-03-17T01:44:11.641Z,0.00
2019-03-17T01:45:11.667Z,0.00
2019-03-17T01:46:11.652Z,0.00
2019-03-17T01:47:11.575Z,0.00
2019-03-17T01:48:11.564Z,0.00
2019-03-17T01:49:11.635Z,0.00
2019-03-17T01:50:11.562Z,0.00
2019-03-17T01:51:11.550Z,0.00
2019-03-17T01:52:11.585Z,0.00
2019-03-17T01:53:11.534Z,0.00
2019-03-17T01:54:11.535Z,0.00
2019-03-17T01:55:11.531Z,0.00
2019-03-17T01:56:11.483Z,0.00
2019-03-17T01:57:11.489Z,0.00
2019-03-17T01:58:11.445Z,0.00
2019-03-17T01:59:11.473Z,0.00
2019-03-17T02:00:11.431Z,0.00
2019-03-17T02:01:11.983Z,0.00
2019-03-17T02:02:11.486Z,0.00
2019-03-17T02:03:11.432Z,0.00
2019-03-17T02:04:11.391Z,0.00
2019-03-17T02:05:21.569Z,0.00
2019-03-17T02:06:12.480Z,0.00
2019-03-17T02:07:11.413Z,0.00
2019-03-17T02:08:11.359Z,0.00
2019-03-17T02:09:11.343Z,0.00
2019-03-17T02:10:11.390Z,0.00
2019-03-17T02:11:11.362Z,0.00
2019-03-17T02:12:11.466Z,0.00
2019-03-17T02:13:11.336Z,0.00
2019-03-17T02:14:11.291Z,0.00
2019-03-17T02:15:11.297Z,0.00
2019-03-17T02:16:11.314Z,0.00
2019-03-17T02:17:11.256Z,0.00
2019-03-17T02:18:11.322Z,0.00
2019-03-17T02:19:11.236Z,0.00
2019-03-17T02:20:11.221Z,0.00
2019-03-17T02:21:11.244Z,0.00
2019-03-17T02:22:11.234Z,0.00
2019-03-17T02:23:11.196Z,0.00
2019-03-17T02:24:11.202Z,0.00
2019-03-17T02:25:11.225Z,0.00
2019-03-17T02:26:11.205Z,0.00
2019-03-17T02:27:11.170Z,0.00
2019-03-17T02:28:11.148Z,0.00
2019-03-17T02:29:11.125Z,0.00
2019-03-17T02:30:11.132Z,0.00
2019-03-17T02:31:11.165Z,0.00
2019-03-17T02:32:11.155Z,0.00
2019-03-17T02:33:11.127Z,0.00
2019-03-17T02:34:12.122Z,0.00
2019-03-17T02:35:11.126Z,0.00
2019-03-17T02:36:11.091Z,0.00
2019-03-17T02:37:11.046Z,0.00
2019-03-17T02:38:11.087Z,0.00
2019-03-17T02:39:11.035Z,0.00
2019-03-17T02:40:11.089Z,0.00
2019-03-17T02:41:11.011Z,0.00
2019-03-17T02:42:11.108Z,0.00
2019-03-17T02:43:11.008Z,0.00
2019-03-17T02:44:11.033Z,0.00
2019-03-17T02:45:11.002Z,0.00
2019-03-17T02:46:10.943Z,0.00
2019-03-17T02:47:10.950Z,0.00
2019-03-17T02:48:10.966Z,0.00
2019-03-17T02:49:10.966Z,0.00
2019-03-17T02:50:10.925Z,0.00
2019-03-17T02:51:10.893Z,0.00
2019-03-17T02:52:10.911Z,0.00
2019-03-17T02:53:10.886Z,0.00
2019-03-17T02:54:11.026Z,0.00
2019-03-17T02:55:10.922Z,0.00
2019-03-17T02:56:10.860Z,0.00
2019-03-17T02:57:10.830Z,0.00
2019-03-17T02:58:10.835Z,0.00
2019-03-17T02:59:10.895Z,0.00
2019-03-17T03:00:10.836Z,0.00
2019-03-17T03:01:10.861Z,0.00
2019-03-17T03:02:10.828Z,0.00
2019-03-17T03:03:10.822Z,0.00
2019-03-17T03:04:10.763Z,0.00
2019-03-17T03:05:10.761Z,0.00
2019-03-17T03:06:10.788Z,0.00
2019-03-17T03:07:10.794Z,0.00
2019-03-17T03:08:10.742Z,0.00
2019-03-17T03:09:10.708Z,0.00
2019-03-17T03:10:10.723Z,0.00
2019-03-17T03:11:10.722Z,0.00
2019-03-17T03:12:10.709Z,0.00
2019-03-17T03:13:10.755Z,0.00
2019-03-17T03:14:10.662Z,0.00
2019-03-17T03:15:10.645Z,0.00
2019-03-17T03:16:10.713Z,0.00
2019-03-17T03:17:10.622Z,0.00
2019-03-17T03:18:10.653Z,0.00
2019-03-17T03:19:10.628Z,0.00
2019-03-17T03:20:10.610Z,0.00
2019-03-17T03:21:10.649Z,0.00
2019-03-17T03:22:10.608Z,0.00
2019-03-17T03:23:10.660Z,0.00
2019-03-17T03:24:10.581Z,0.00
2019-03-17T03:25:10.556Z,0.00
2019-03-17T03:26:10.623Z,0.00
2019-03-17T03:27:10.544Z,0.00
2019-03-17T03:28:10.572Z,0.00
2019-03-17T03:29:10.706Z,0.00
2019-03-17T03:30:10.759Z,0.00
2019-03-17T03:31:10.482Z,0.00
2019-03-17T03:32:10.511Z,0.00
2019-03-17T03:33:10.463Z,0.00
2019-03-17T03:34:10.464Z,0.00
2019-03-17T03:35:10.479Z,0.00
2019-03-17T03:36:11.852Z,0.00
2019-03-17T03:37:10.424Z,0.00
2019-03-17T03:38:10.473Z,0.00
2019-03-17T03:39:10.401Z,0.00
2019-03-17T03:40:10.391Z,0.00
2019-03-17T03:41:10.418Z,0.00
2019-03-17T03:42:10.459Z,0.00
2019-03-17T03:43:10.417Z,0.00
2019-03-17T03:44:10.389Z,0.00
2019-03-17T03:45:10.343Z,0.00
2019-03-17T03:46:10.321Z,0.00
2019-03-17T03:47:10.377Z,0.00
2019-03-17T03:48:10.318Z,0.00
2019-03-17T03:49:10.312Z,0.00
2019-03-17T03:50:10.308Z,0.00
2019-03-17T03:51:10.279Z,0.00
2019-03-17T03:52:10.270Z,0.00
2019-03-17T03:53:10.279Z,0.00
2019-03-17T03:54:10.408Z,0.00
2019-03-17T03:55:10.239Z,0.00
2019-03-17T03:56:10.241Z,0.00
2019-03-17T03:57:10.265Z,0.00
2019-03-17T03:58:10.209Z,0.00
2019-03-17T03:59:10.189Z,0.00
2019-03-17T04:00:10.202Z,0.00
2019-03-17T04:01:10.194Z,0.00
2019-03-17T04:02:10.158Z,0.00
2019-03-17T04:03:10.164Z,0.00
2019-03-17T04:04:10.141Z,0.00
2019-03-17T04:05:10.136Z,0.00
2019-03-17T04:06:25.149Z,0.00
2019-03-17T04:07:11.126Z,0.00
2019-03-17T04:08:10.095Z,0.00
2019-03-17T04:09:10.140Z,0.00
2019-03-17T04:10:10.138Z,0.00
2019-03-17T04:11:10.160Z,0.00
2019-03-17T04:12:10.075Z,0.00
2019-03-17T04:13:10.060Z,0.00
2019-03-17T04:14:10.034Z,0.00
2019-03-17T04:15:10.033Z,0.00
2019-03-17T04:16:10.037Z,0.00
2019-03-17T04:17:09.998Z,0.00
2019-03-17T04:18:10.012Z,0.00
2019-03-17T04:19:10.011Z,0.00
2019-03-17T04:20:09.979Z,0.00
2019-03-17T04:21:10.025Z,0.00
2019-03-17T04:22:09.949Z,0.00
2019-03-17T04:23:09.952Z,0.00
2019-03-17T04:24:10.054Z,0.00
2019-03-17T04:25:09.953Z,0.00
2019-03-17T04:26:09.998Z,0.00
2019-03-17T04:27:09.905Z,0.00
2019-03-17T04:28:09.909Z,0.00
2019-03-17T04:29:09.885Z,0.00
2019-03-17T04:30:10.039Z,0.00
2019-03-17T04:31:09.867Z,0.00
2019-03-17T04:32:09.845Z,0.00
2019-03-17T04:33:09.841Z,0.00
2019-03-17T04:34:09.879Z,0.00
2019-03-17T04:35:09.823Z,0.00
2019-03-17T04:36:09.924Z,0.00
2019-03-17T04:37:09.805Z,0.00
2019-03-17T04:38:09.844Z,0.00
2019-03-17T04:39:09.776Z,0.00
2019-03-17T04:40:09.828Z,0.00
2019-03-17T04:41:09.762Z,0.00
2019-03-17T04:42:09.766Z,0.00
2019-03-17T04:43:09.817Z,0.00
2019-03-17T04:44:20.412Z,0.00
2019-03-17T04:45:10.739Z,0.00
2019-03-17T04:46:09.718Z,0.00
2019-03-17T04:47:09.746Z,0.00
2019-03-17T04:48:09.701Z,0.00
2019-03-17T04:49:09.698Z,0.00
2019-03-17T04:50:09.689Z,0.00
2019-03-17T04:51:09.645Z,0.00
2019-03-17T04:52:09.650Z,0.00
2019-03-17T04:53:09.625Z,0.00
2019-03-17T04:54:09.682Z,0.00
2019-03-17T04:55:09.630Z,0.00
2019-03-17T04:56:09.651Z,0.00
2019-03-17T04:57:09.587Z,0.00
2019-03-17T04:58:09.579Z,0.00
2019-03-17T04:59:09.577Z,0.00
2019-03-17T05:00:09.612Z,0.00
2019-03-17T05:01:09.557Z,0.00
2019-03-17T05:02:09.541Z,0.00
2019-03-17T05:03:09.567Z,0.00
2019-03-17T05:04:09.541Z,0.00
2019-03-17T05:05:09.554Z,0.00
2019-03-17T05:06:09.506Z,0.00
2019-03-17T05:07:09.548Z,4.00
2019-03-17T05:08:09.467Z,4.00
2019-03-17T05:09:09.473Z,0.00
2019-03-17T05:10:09.457Z,0.00
2019-03-17T05:11:09.578Z,4.00
2019-03-17T05:12:09.465Z,4.00
2019-03-17T05:13:09.592Z,4.00
2019-03-17T05:14:09.416Z,8.00
2019-03-17T05:15:09.415Z,4.00
2019-03-17T05:16:09.471Z,8.00
2019-03-17T05:17:09.406Z,12.00
2019-03-17T05:18:09.432Z,8.00
2019-03-17T05:19:09.384Z,16.00
2019-03-17T05:20:09.386Z,16.00
2019-03-17T05:21:09.343Z,20.00
2019-03-17T05:22:09.355Z,24.00
2019-03-17T05:23:09.333Z,28.00
2019-03-17T05:24:09.368Z,36.00
2019-03-17T05:25:09.345Z,44.00
2019-03-17T05:26:09.344Z,52.00
2019-03-17T05:27:09.342Z,64.00
2019-03-17T05:28:09.278Z,80.00
2019-03-17T05:29:09.291Z,96.00
2019-03-17T05:30:09.271Z,104.00
2019-03-17T05:31:09.275Z,116.00
2019-03-17T05:32:09.252Z,132.00
2019-03-17T05:33:09.214Z,148.00
2019-03-17T05:34:09.201Z,164.00
2019-03-17T05:35:09.203Z,184.00
2019-03-17T05:36:09.198Z,204.00
2019-03-17T05:37:09.278Z,224.00
2019-03-17T05:38:09.287Z,248.00
2019-03-17T05:39:09.167Z,272.00
2019-03-17T05:40:09.141Z,296.00
2019-03-17T05:41:09.126Z,324.00
2019-03-17T05:42:09.233Z,352.00
2019-03-17T05:43:09.124Z,388.00
2019-03-17T05:44:09.126Z,424.00
2019-03-17T05:45:09.123Z,464.00
2019-03-17T05:46:09.081Z,512.00
2019-03-17T05:47:09.094Z,556.00
2019-03-17T05:48:09.113Z,612.00
2019-03-17T05:49:09.071Z,668.00
2019-03-17T05:50:09.035Z,724.00
2019-03-17T05:51:09.033Z,788.00
2019-03-17T05:52:09.021Z,852.00
2019-03-17T05:53:09.011Z,916.00
2019-03-17T05:54:09.033Z,976.00
2019-03-17T05:55:09.005Z,1040.00
2019-03-17T05:56:08.975Z,1100.00
2019-03-17T05:57:08.957Z,1160.00
2019-03-17T05:58:16.048Z,1216.00
2019-03-17T05:59:08.941Z,1264.00
2019-03-17T06:00:08.975Z,1320.00
2019-03-17T06:01:08.924Z,1380.00
2019-03-17T06:02:08.925Z,1436.00
2019-03-17T06:03:08.900Z,1504.00
2019-03-17T06:04:08.891Z,1576.00
2019-03-17T06:05:08.879Z,1644.00
2019-03-17T06:06:08.887Z,1700.00
2019-03-17T06:07:18.264Z,1768.00
2019-03-17T06:08:09.846Z,1844.00
2019-03-17T06:09:08.849Z,1924.00
2019-03-17T06:10:08.826Z,2024.00
2019-03-17T06:11:08.816Z,2116.00
2019-03-17T06:12:08.855Z,2204.00
2019-03-17T06:13:08.793Z,2284.00
2019-03-17T06:14:08.785Z,2380.00
2019-03-17T06:15:08.775Z,2484.00
2019-03-17T06:16:08.765Z,2584.00
2019-03-17T06:17:08.755Z,2688.00
2019-03-17T06:18:08.755Z,2792.00
2019-03-17T06:19:08.733Z,2908.00
2019-03-17T06:20:08.723Z,3016.00
2019-03-17T06:21:08.720Z,3152.00
2019-03-17T06:22:08.701Z,3324.00
2019-03-17T06:23:08.691Z,3524.00
2019-03-17T06:24:08.698Z,4080.00
2019-03-17T06:25:08.693Z,5232.00
2019-03-17T06:26:08.660Z,5064.00
2019-03-17T06:27:08.650Z,5640.00
2019-03-17T06:28:08.637Z,5128.00
2019-03-17T06:29:08.627Z,5496.00
2019-03-17T06:30:08.666Z,6224.00
2019-03-17T06:31:08.606Z,8200.00
2019-03-17T06:32:08.596Z,10180.00
2019-03-17T06:33:08.586Z,10796.00
2019-03-17T06:34:08.576Z,9952.00
2019-03-17T06:35:08.566Z,9260.00
2019-03-17T06:36:08.599Z,9976.00
2019-03-17T06:37:08.547Z,11032.00
2019-03-17T06:38:08.536Z,10844.00
2019-03-17T06:39:08.522Z,11248.00
2019-03-17T06:40:08.512Z,12040.00
2019-03-17T06:41:08.502Z,12040.00
2019-03-17T06:42:08.506Z,12292.00
2019-03-17T06:43:08.485Z,12044.00
2019-03-17T06:44:08.470Z,11328.00
2019-03-17T06:45:08.458Z,11472.00
2019-03-17T06:46:08.449Z,12240.00
2019-03-17T06:47:08.439Z,13072.00
2019-03-17T06:48:08.444Z,13920.00
2019-03-17T06:49:08.418Z,14720.00
2019-03-17T06:50:08.429Z,14560.00
2019-03-17T06:51:08.397Z,14464.00
2019-03-17T06:52:08.387Z,13664.00
2019-03-17T06:53:08.376Z,14368.00
2019-03-17T06:54:08.419Z,15168.00
2019-03-17T06:55:08.353Z,15456.00
2019-03-17T06:56:08.341Z,13344.00
2019-03-17T06:57:08.334Z,13184.00
2019-03-17T06:58:08.321Z,12248.00
2019-03-17T06:59:08.309Z,13332.00
2019-03-17T07:00:08.316Z,12212.00
2019-03-17T07:01:08.290Z,13008.00
2019-03-17T07:02:08.277Z,11740.00
2019-03-17T07:03:08.299Z,10156.00
2019-03-17T07:04:08.258Z,9824.00
2019-03-17T07:05:08.245Z,9896.00
2019-03-17T07:06:08.248Z,10248.00
2019-03-17T07:07:08.228Z,8908.00
2019-03-17T07:08:08.219Z,9532.00
2019-03-17T07:09:08.203Z,11352.00
2019-03-17T07:10:08.193Z,13592.00
2019-03-17T07:11:10.899Z,13932.00
2019-03-17T07:12:08.187Z,12904.00
2019-03-17T07:13:08.162Z,11532.00
2019-03-17T07:14:08.149Z,13616.00
2019-03-17T07:15:08.143Z,12804.00
2019-03-17T07:16:08.127Z,11416.00
2019-03-17T07:17:08.123Z,14208.00
2019-03-17T07:18:08.151Z,11604.00
2019-03-17T07:19:08.096Z,13180.00
2019-03-17T07:20:08.088Z,11316.00
2019-03-17T07:21:08.075Z,12088.00
2019-03-17T07:22:08.079Z,13336.00
2019-03-17T07:23:08.053Z,12328.00
2019-03-17T07:24:08.059Z,12428.00
2019-03-17T07:25:08.031Z,12612.00
2019-03-17T07:26:08.025Z,15904.00
2019-03-17T07:27:08.012Z,17920.00
2019-03-17T07:28:08.001Z,16608.00
2019-03-17T07:29:07.989Z,19552.00
2019-03-17T07:30:08.044Z,19200.00
2019-03-17T07:31:07.966Z,18016.00
2019-03-17T07:32:07.957Z,15520.00
2019-03-17T07:33:07.947Z,13372.00
2019-03-17T07:34:07.936Z,12784.00
2019-03-17T07:35:07.927Z,11640.00
2019-03-17T07:36:07.935Z,15776.00
2019-03-17T07:37:07.918Z,16416.00
2019-03-17T07:38:07.892Z,15072.00
2019-03-17T07:39:12.188Z,14520.00
2019-03-17T07:40:07.873Z,14688.00
2019-03-17T07:41:07.862Z,13704.00
2019-03-17T07:42:07.950Z,15084.00
2019-03-17T07:43:07.838Z,14184.00
2019-03-17T07:44:07.830Z,15968.00
2019-03-17T07:45:07.818Z,22528.00
2019-03-17T07:46:07.805Z,27488.00
2019-03-17T07:47:07.796Z,25600.00
2019-03-17T07:48:07.801Z,23456.00
2019-03-17T07:49:07.774Z,26240.00
2019-03-17T07:50:07.764Z,31328.00
2019-03-17T07:51:07.756Z,28384.00
2019-03-17T07:52:07.743Z,28864.00
2019-03-17T07:53:07.730Z,22624.00
2019-03-17T07:54:07.737Z,27104.00
2019-03-17T07:55:07.730Z,33664.00
2019-03-17T07:56:07.699Z,36416.00
2019-03-17T07:57:07.689Z,35264.00
2019-03-17T07:58:07.685Z,34400.00
2019-03-17T07:59:07.670Z,30368.00
2019-03-17T08:00:07.669Z,22944.00
2019-03-17T08:01:07.649Z,27904.00
2019-03-17T08:02:07.634Z,33952.00
2019-03-17T08:03:07.625Z,12604.00
2019-03-17T08:04:07.612Z,19328.00
2019-03-17T08:05:07.602Z,13308.00
2019-03-17T08:06:07.607Z,10688.00
2019-03-17T08:07:07.583Z,10612.00
2019-03-17T08:08:09.790Z,11820.00
2019-03-17T08:09:07.560Z,12196.00
2019-03-17T08:10:07.547Z,12868.00
2019-03-17T08:11:07.537Z,11304.00
2019-03-17T08:12:07.553Z,10896.00
2019-03-17T08:13:07.515Z,11128.00
2019-03-17T08:14:07.512Z,11056.00
2019-03-17T08:15:07.492Z,11796.00
2019-03-17T08:16:07.483Z,13700.00
2019-03-17T08:17:07.473Z,33696.00
2019-03-17T08:18:07.553Z,43520.00
2019-03-17T08:19:07.451Z,38176.00
2019-03-17T08:20:07.444Z,46176.00
2019-03-17T08:21:07.454Z,16832.00
2019-03-17T08:22:07.419Z,17632.00
2019-03-17T08:23:07.409Z,15552.00
2019-03-17T08:24:07.413Z,14012.00
2019-03-17T08:25:07.387Z,17216.00
2019-03-17T08:26:07.377Z,12628.00
2019-03-17T08:27:07.364Z,13188.00
2019-03-17T08:28:07.353Z,13424.00
2019-03-17T08:29:07.366Z,13480.00
2019-03-17T08:30:07.403Z,13760.00
2019-03-17T08:31:07.324Z,30464.00
2019-03-17T08:32:07.316Z,17216.00
2019-03-17T08:33:07.325Z,11676.00
2019-03-17T08:34:07.290Z,39808.00
2019-03-17T08:35:07.363Z,37792.00
2019-03-17T08:36:07.285Z,41856.00
2019-03-17T08:37:07.257Z,48800.00
2019-03-17T08:38:07.241Z,44320.00
2019-03-17T08:39:07.237Z,12388.00
2019-03-17T08:40:07.260Z,11148.00
2019-03-17T08:41:07.213Z,10056.00
2019-03-17T08:42:07.248Z,32064.00
2019-03-17T08:43:07.194Z,25120.00
2019-03-17T08:44:07.180Z,51168.00
2019-03-17T08:45:07.174Z,52480.00
2019-03-17T08:46:07.161Z,53856.00
2019-03-17T08:47:07.152Z,58016.00
2019-03-17T08:48:07.201Z,15584.00
2019-03-17T08:49:07.126Z,19680.00
2019-03-17T08:50:07.116Z,18912.00
2019-03-17T08:51:07.107Z,14928.00
2019-03-17T08:52:07.095Z,51872.00
2019-03-17T08:53:07.085Z,12036.00
2019-03-17T08:54:07.119Z,12712.00
2019-03-17T08:55:07.062Z,12456.00
2019-03-17T08:56:07.052Z,11096.00
2019-03-17T08:57:07.039Z,11960.00
2019-03-17T08:58:07.030Z,10984.00
2019-03-17T08:59:07.024Z,10924.00
2019-03-17T09:00:07.063Z,11344.00
2019-03-17T09:01:06.998Z,10868.00
2019-03-17T09:02:07.003Z,11652.00
2019-03-17T09:03:06.975Z,30720.00
2019-03-17T09:04:06.975Z,12796.00
2019-03-17T09:05:06.971Z,60256.00
2019-03-17T09:06:07.001Z,62080.00
2019-03-17T09:07:06.933Z,14456.00
2019-03-17T09:08:06.922Z,42496.00
2019-03-17T09:09:06.912Z,20672.00
2019-03-17T09:10:06.902Z,62176.00
2019-03-17T09:11:06.885Z,63904.00
2019-03-17T09:12:06.934Z,65408.00
2019-03-17T09:13:06.873Z,14072.00
2019-03-17T09:14:06.864Z,67936.00
2019-03-17T09:15:06.847Z,71648.00
2019-03-17T09:16:06.839Z,59808.00
2019-03-17T09:17:14.345Z,47616.00
2019-03-17T09:18:07.869Z,65824.00
2019-03-17T09:19:06.807Z,60928.00
2019-03-17T09:20:06.795Z,19168.00
2019-03-17T09:21:06.802Z,68096.00
2019-03-17T09:22:06.770Z,62624.00
2019-03-17T09:23:06.759Z,75168.00
2019-03-17T09:24:16.666Z,72480.00
2019-03-17T09:25:07.740Z,71648.00
2019-03-17T09:26:06.731Z,70944.00
2019-03-17T09:27:06.723Z,76288.00
2019-03-17T09:28:06.724Z,34176.00
2019-03-17T09:29:06.697Z,20544.00
2019-03-17T09:30:06.780Z,76704.00
2019-03-17T09:31:07.587Z,35200.00
2019-03-17T09:32:06.663Z,42208.00
2019-03-17T09:33:06.653Z,20320.00
2019-03-17T09:34:06.646Z,18880.00
2019-03-17T09:35:06.644Z,18208.00
2019-03-17T09:36:06.679Z,37888.00
2019-03-17T09:37:06.613Z,75616.00
2019-03-17T09:38:06.630Z,28064.00
2019-03-17T09:39:06.598Z,24448.00
2019-03-17T09:40:06.580Z,18944.00
2019-03-17T09:41:06.567Z,18848.00
2019-03-17T09:42:06.618Z,21920.00
2019-03-17T09:43:06.549Z,26688.00
2019-03-17T09:44:06.537Z,24192.00
2019-03-17T09:45:06.525Z,72032.00
2019-03-17T09:46:06.513Z,23424.00
2019-03-17T09:47:06.503Z,23040.00
2019-03-17T09:48:06.545Z,19648.00
2019-03-17T09:49:06.488Z,18176.00
2019-03-17T09:50:06.481Z,18240.00
2019-03-17T09:51:06.468Z,20576.00
2019-03-17T09:52:06.456Z,20032.00
2019-03-17T09:53:06.439Z,20256.00
2019-03-17T09:54:06.475Z,22336.00
2019-03-17T09:55:06.423Z,24928.00
2019-03-17T09:56:06.407Z,24992.00
2019-03-17T09:57:06.398Z,26656.00
2019-03-17T09:58:06.385Z,52352.00
2019-03-17T09:59:06.385Z,28096.00
2019-03-17T10:00:06.414Z,38848.00
2019-03-17T10:01:06.354Z,43680.00
2019-03-17T10:02:06.344Z,27744.00
2019-03-17T10:03:06.334Z,74912.00
2019-03-17T10:04:06.319Z,77888.00
2019-03-17T10:05:06.308Z,69056.00
2019-03-17T10:06:06.356Z,78272.00
2019-03-17T10:07:06.290Z,82112.00
2019-03-17T10:08:06.334Z,86432.00
2019-03-17T10:09:06.267Z,72576.00
2019-03-17T10:10:06.254Z,26144.00
2019-03-17T10:11:06.250Z,86208.00
2019-03-17T10:12:06.296Z,87232.00
2019-03-17T10:13:06.936Z,89568.00
2019-03-17T10:14:06.214Z,89536.00
2019-03-17T10:15:06.209Z,92192.00
2019-03-17T10:16:06.202Z,36160.00
2019-03-17T10:17:06.180Z,29568.00
2019-03-17T10:18:06.235Z,51552.00
2019-03-17T10:19:06.158Z,32416.00
2019-03-17T10:20:06.154Z,27264.00
2019-03-17T10:21:06.139Z,28320.00
2019-03-17T10:22:06.129Z,23648.00
2019-03-17T10:23:06.118Z,23968.00
2019-03-17T10:24:06.368Z,22784.00
2019-03-17T10:25:06.101Z,37536.00
2019-03-17T10:26:06.091Z,30592.00
2019-03-17T10:27:06.078Z,47936.00
2019-03-17T10:28:06.068Z,76000.00
2019-03-17T10:29:06.053Z,79744.00
2019-03-17T10:30:06.121Z,60256.00
2019-03-17T10:31:06.045Z,35552.00
2019-03-17T10:32:06.027Z,24512.00
2019-03-17T10:33:06.011Z,24992.00
2019-03-17T10:34:06.001Z,22976.00
2019-03-17T10:35:05.994Z,86720.00
2019-03-17T10:36:06.059Z,82496.00
2019-03-17T10:37:05.969Z,23360.00
2019-03-17T10:38:05.958Z,87328.00
2019-03-17T10:39:12.434Z,83680.00
2019-03-17T10:40:06.933Z,40288.00
2019-03-17T10:41:05.926Z,78272.00
2019-03-17T10:42:05.970Z,86464.00
2019-03-17T10:43:05.964Z,81792.00
2019-03-17T10:44:05.896Z,78624.00
2019-03-17T10:45:05.884Z,84736.00
2019-03-17T10:46:05.879Z,84064.00
2019-03-17T10:47:05.862Z,88320.00
2019-03-17T10:48:05.910Z,45120.00
2019-03-17T10:49:05.842Z,83744.00
2019-03-17T10:50:05.833Z,83904.00
2019-03-17T10:51:05.817Z,81472.00
2019-03-17T10:52:05.811Z,32576.00
2019-03-17T10:53:05.797Z,28160.00
2019-03-17T10:54:05.840Z,85792.00
2019-03-17T10:55:05.775Z,93728.00
2019-03-17T10:56:05.766Z,91456.00
2019-03-17T10:57:05.761Z,87904.00
2019-03-17T10:58:05.744Z,40544.00
2019-03-17T10:59:05.734Z,41312.00
2019-03-17T11:00:05.790Z,94784.00
2019-03-17T11:01:05.711Z,29888.00
2019-03-17T11:02:05.703Z,69984.00
2019-03-17T11:03:05.693Z,65408.00
2019-03-17T11:04:05.686Z,48096.00
2019-03-17T11:05:05.706Z,38368.00
2019-03-17T11:06:05.709Z,78976.00
2019-03-17T11:07:05.654Z,33472.00
2019-03-17T11:08:05.641Z,78880.00
2019-03-17T11:09:05.628Z,88288.00
2019-03-17T11:10:05.619Z,94528.00
2019-03-17T11:11:05.609Z,39040.00
2019-03-17T11:12:05.657Z,38144.00
2019-03-17T11:13:05.667Z,99168.00
2019-03-17T11:14:05.577Z,69696.00
2019-03-17T11:15:05.568Z,36928.00
2019-03-17T11:16:05.560Z,20576.00
2019-03-17T11:17:05.545Z,26848.00
2019-03-17T11:18:05.584Z,17056.00
2019-03-17T11:19:05.526Z,12752.00
2019-03-17T11:20:05.519Z,10848.00
2019-03-17T11:21:05.506Z,10664.00
2019-03-17T11:22:05.493Z,14124.00
2019-03-17T11:23:05.487Z,14900.00
2019-03-17T11:24:05.573Z,12164.00
2019-03-17T11:25:05.465Z,12640.00
2019-03-17T11:26:05.453Z,14868.00
2019-03-17T11:27:05.441Z,12700.00
2019-03-17T11:28:05.426Z,11772.00
2019-03-17T11:29:05.423Z,15284.00
2019-03-17T11:30:05.462Z,23744.00
2019-03-17T11:31:05.399Z,30816.00
2019-03-17T11:32:06.687Z,29600.00
2019-03-17T11:33:05.372Z,28704.00
2019-03-17T11:34:05.365Z,22368.00
2019-03-17T11:35:05.353Z,16672.00
2019-03-17T11:36:05.387Z,16896.00
2019-03-17T11:37:05.335Z,38944.00
2019-03-17T11:38:05.322Z,50528.00
2019-03-17T11:39:05.309Z,53760.00
2019-03-17T11:40:05.302Z,23968.00
2019-03-17T11:41:05.290Z,21920.00
2019-03-17T11:42:05.328Z,18368.00
2019-03-17T11:43:05.267Z,21568.00
2019-03-17T11:44:05.258Z,24704.00
2019-03-17T11:45:05.295Z,38624.00
2019-03-17T11:46:05.239Z,24224.00
2019-03-17T11:47:05.229Z,22496.00
2019-03-17T11:48:05.277Z,76288.00
2019-03-17T11:49:05.208Z,80832.00
2019-03-17T11:50:05.200Z,67776.00
2019-03-17T11:51:05.187Z,27328.00
2019-03-17T11:52:05.175Z,40096.00
2019-03-17T11:53:05.164Z,84096.00
2019-03-17T11:54:05.203Z,85216.00
2019-03-17T11:55:05.155Z,86688.00
2019-03-17T11:56:05.135Z,81600.00
2019-03-17T11:57:05.151Z,30112.00
2019-03-17T11:58:05.110Z,24640.00
2019-03-17T11:59:05.100Z,40480.00
2019-03-17T12:00:12.493Z,30688.00
2019-03-17T12:01:05.081Z,25248.00
2019-03-17T12:02:05.077Z,26048.00
2019-03-17T12:03:05.064Z,61344.00
2019-03-17T12:04:05.054Z,74880.00
2019-03-17T12:05:05.039Z,85216.00
2019-03-17T12:06:05.090Z,80128.00
2019-03-17T12:07:05.017Z,89120.00
2019-03-17T12:08:05.004Z,40192.00
2019-03-17T12:09:04.995Z,67104.00
2019-03-17T12:10:05.007Z,79776.00
2019-03-17T12:11:04.973Z,77888.00
2019-03-17T12:12:05.020Z,29856.00
2019-03-17T12:13:04.953Z,80160.00
2019-03-17T12:14:04.939Z,77184.00
2019-03-17T12:15:04.947Z,87936.00
2019-03-17T12:16:04.929Z,31008.00
2019-03-17T12:17:04.918Z,23040.00
2019-03-17T12:18:04.961Z,23968.00
2019-03-17T12:19:04.897Z,64416.00
2019-03-17T12:20:04.881Z,40800.00
2019-03-17T12:21:04.868Z,51456.00
2019-03-17T12:22:09.277Z,30528.00
2019-03-17T12:23:04.846Z,23424.00
2019-03-17T12:24:04.902Z,70912.00
2019-03-17T12:25:04.859Z,25344.00